createdAt,value
2023-02-01T00:00:08.315Z,0
2023-02-01T00:00:39.896Z,0
2023-02-01T00:01:10.046Z,0
2023-02-01T00:01:40.866Z,0
2023-02-01T00:02:15.354Z,0
2023-02-01T00:02:42.975Z,0
2023-02-01T00:03:13.826Z,0
2023-02-01T00:03:44.873Z,0
2023-02-01T00:04:15.883Z,0
2023-02-01T00:04:47.017Z,0
2023-02-01T00:05:17.935Z,-.11
2023-02-01T00:05:49.990Z,0
2023-02-01T00:06:19.977Z,0
2023-02-01T00:06:51.008Z,0
2023-02-01T00:07:21.974Z,0
2023-02-01T00:07:52.878Z,0
2023-02-01T00:08:23.808Z,-.11
2023-02-01T00:08:54.980Z,-.11
2023-02-01T00:09:26.056Z,-.11
2023-02-01T00:09:56.705Z,-.11
2023-02-01T00:10:28.013Z,-.11
2023-02-01T00:10:59.889Z,-.11
2023-02-01T00:11:30.065Z,-.11
2023-02-01T00:12:00.676Z,-.11
2023-02-01T00:12:32.119Z,0
2023-02-01T00:13:03.056Z,0
2023-02-01T00:13:33.844Z,-.11
2023-02-01T00:14:04.593Z,-.11
2023-02-01T00:14:35.959Z,-.11
2023-02-01T00:15:07.005Z,-.11
2023-02-01T00:15:37.931Z,-.11
2023-02-01T00:16:10.135Z,-.11
2023-02-01T00:16:39.951Z,-.11
2023-02-01T00:17:10.886Z,-.11
2023-02-01T00:17:41.680Z,-.11
2023-02-01T00:18:13.090Z,-.11
2023-02-01T00:18:43.878Z,-.11
2023-02-01T00:19:14.872Z,-.11
2023-02-01T00:19:45.770Z,-.11
2023-02-01T00:20:17.038Z,-.11
2023-02-01T00:20:47.957Z,-.11
2023-02-01T00:21:19.644Z,-.11
2023-02-01T00:21:49.977Z,-.11
2023-02-01T00:22:20.896Z,-.11
2023-02-01T00:22:51.864Z,-.11
2023-02-01T00:23:22.920Z,-.11
2023-02-01T00:23:53.900Z,-.22
2023-02-01T00:24:24.913Z,-.22
2023-02-01T00:24:56.017Z,-.22
2023-02-01T00:25:26.988Z,-.22
2023-02-01T00:25:57.819Z,-.22
2023-02-01T00:26:29.938Z,-.22
2023-02-01T00:26:59.929Z,-.22
2023-02-01T00:27:31.032Z,-.22
2023-02-01T00:28:01.899Z,-.22
2023-02-01T00:28:32.974Z,-.22
2023-02-01T00:29:03.802Z,-.22
2023-02-01T00:29:35.247Z,-.22
2023-02-01T00:30:06.189Z,-.22
2023-02-01T00:30:36.846Z,-.22
2023-02-01T00:31:08.331Z,-.22
2023-02-01T00:31:39.882Z,-.22
2023-02-01T00:32:10.070Z,-.22
2023-02-01T00:32:40.951Z,-.22
2023-02-01T00:33:11.841Z,-.22
2023-02-01T00:33:42.952Z,-.22
2023-02-01T00:34:13.902Z,-.22
2023-02-01T00:34:44.832Z,-.22
2023-02-01T00:35:15.705Z,-.22
2023-02-01T00:35:46.939Z,-.22
2023-02-01T00:36:17.859Z,-.22
2023-02-01T00:36:50.124Z,-.22
2023-02-01T00:37:19.739Z,-.22
2023-02-01T00:37:50.838Z,-.22
2023-02-01T00:38:21.659Z,-.22
2023-02-01T00:38:52.751Z,-.22
2023-02-01T00:39:23.925Z,-.22
2023-02-01T00:39:54.782Z,-.27
2023-02-01T00:40:25.877Z,-.27
2023-02-01T00:40:57.007Z,-.27
2023-02-01T00:41:28.073Z,-.27
2023-02-01T00:41:59.858Z,-.27
2023-02-01T00:42:29.881Z,-.27
2023-02-01T00:43:00.854Z,-.27
2023-02-01T00:43:31.948Z,-.27
2023-02-01T00:44:03.006Z,-.27
2023-02-01T00:44:33.781Z,-.27
2023-02-01T00:45:05.090Z,-.27
2023-02-01T00:45:35.875Z,-.27
2023-02-01T00:46:06.843Z,-.27
2023-02-01T00:46:37.786Z,-.27
2023-02-01T00:47:09.907Z,-.27
2023-02-01T00:47:39.818Z,-.27
2023-02-01T00:48:11.018Z,-.27
2023-02-01T00:48:41.911Z,-.27
2023-02-01T00:49:12.864Z,-.27
2023-02-01T00:49:43.723Z,-.27
2023-02-01T00:50:14.821Z,-.27
2023-02-01T00:50:45.888Z,-.27
2023-02-01T00:51:16.863Z,-.27
2023-02-01T00:51:47.802Z,-.27
2023-02-01T00:52:19.798Z,-.27
2023-02-01T00:52:49.831Z,-.27
2023-02-01T00:53:20.773Z,-.27
2023-02-01T00:53:51.763Z,-.27
2023-02-01T00:54:22.784Z,-.27
2023-02-01T00:54:53.777Z,-.27
2023-02-01T00:55:24.970Z,-.27
2023-02-01T00:55:56.112Z,-.27
2023-02-01T00:56:26.877Z,-.27
2023-02-01T00:56:57.875Z,-.27
2023-02-01T00:57:29.937Z,-.27
2023-02-01T00:58:00.122Z,-.27
2023-02-01T00:58:30.729Z,-.27
2023-02-01T00:59:02.005Z,-.27
2023-02-01T00:59:33.019Z,-.27
2023-02-01T01:00:06.564Z,-.27
2023-02-01T01:00:34.785Z,-.27
2023-02-01T01:01:06.055Z,-.27
2023-02-01T01:01:36.915Z,-.27
2023-02-01T01:02:08.123Z,-.27
2023-02-01T01:02:39.793Z,-.27
2023-02-01T01:03:10.079Z,-.27
2023-02-01T01:03:41.001Z,-.27
2023-02-01T01:04:11.751Z,-.27
2023-02-01T01:04:42.998Z,-.27
2023-02-01T01:05:13.893Z,-.27
2023-02-01T01:05:44.964Z,-.27
2023-02-01T01:06:15.899Z,-.27
2023-02-01T01:06:47.047Z,-.27
2023-02-01T01:07:18.033Z,-.27
2023-02-01T01:07:49.723Z,-.27
2023-02-01T01:08:19.664Z,-.27
2023-02-01T01:08:50.672Z,-.27
2023-02-01T01:09:21.943Z,-.27
2023-02-01T01:09:52.946Z,-.27
2023-02-01T01:10:23.880Z,-.27
2023-02-01T01:10:55.012Z,-.27
2023-02-01T01:11:25.835Z,-.27
2023-02-01T01:11:56.787Z,-.27
2023-02-01T01:12:27.807Z,-.27
2023-02-01T01:12:59.912Z,-.27
2023-02-01T01:13:30.091Z,-.27
2023-02-01T01:14:01.131Z,-.27
2023-02-01T01:14:32.209Z,-.22
2023-02-01T01:15:05.896Z,-.22
2023-02-01T01:15:33.919Z,-.22
2023-02-01T01:16:04.829Z,-.22
2023-02-01T01:16:35.868Z,-.22
2023-02-01T01:17:06.899Z,-.22
2023-02-01T01:17:37.985Z,-.22
2023-02-01T01:18:09.900Z,-.22
2023-02-01T01:18:40.073Z,-.22
2023-02-01T01:19:11.153Z,-.22
2023-02-01T01:19:41.659Z,-.22
2023-02-01T01:20:13.179Z,-.22
2023-02-01T01:20:43.958Z,-.27
2023-02-01T01:21:15.005Z,-.22
2023-02-01T01:21:45.834Z,-.27
2023-02-01T01:22:17.206Z,-.27
2023-02-01T01:22:48.042Z,-.22
2023-02-01T01:23:19.785Z,-.22
2023-02-01T01:23:49.956Z,-.22
2023-02-01T01:24:20.877Z,-.22
2023-02-01T01:24:51.911Z,-.22
2023-02-01T01:25:23.185Z,-.22
2023-02-01T01:25:53.791Z,-.22
2023-02-01T01:26:24.965Z,-.22
2023-02-01T01:26:55.902Z,-.22
2023-02-01T01:27:26.807Z,-.22
2023-02-01T01:27:58.027Z,-.22
2023-02-01T01:28:30.059Z,-.22
2023-02-01T01:29:00.155Z,-.22
2023-02-01T01:29:30.925Z,-.22
2023-02-01T01:30:04.819Z,-.22
2023-02-01T01:30:33.112Z,-.22
2023-02-01T01:31:04.097Z,-.22
2023-02-01T01:31:34.747Z,-.11
2023-02-01T01:32:05.725Z,-.11
2023-02-01T01:32:37.001Z,-.11
2023-02-01T01:33:08.108Z,-.11
2023-02-01T01:33:39.971Z,-.11
2023-02-01T01:34:10.030Z,-.11
2023-02-01T01:34:40.999Z,-.11
2023-02-01T01:35:11.773Z,-.11
2023-02-01T01:35:43.023Z,-.11
2023-02-01T01:36:14.041Z,-.11
2023-02-01T01:36:45.076Z,-.11
2023-02-01T01:37:15.969Z,-.11
2023-02-01T01:37:46.744Z,0
2023-02-01T01:38:17.847Z,0
2023-02-01T01:38:49.760Z,0
2023-02-01T01:39:19.834Z,0
2023-02-01T01:39:50.701Z,0
2023-02-01T01:41:10.859Z,0
2023-02-01T01:41:24.260Z,0
2023-02-01T01:41:55.308Z,0
2023-02-01T01:42:26.251Z,0
2023-02-01T01:42:57.265Z,0
2023-02-01T01:43:28.172Z,0
2023-02-01T01:44:00.267Z,0
2023-02-01T01:44:30.223Z,0
2023-02-01T01:45:04.308Z,0
2023-02-01T01:45:32.129Z,0
2023-02-01T01:46:03.841Z,0
2023-02-01T01:46:34.742Z,0
2023-02-01T01:47:05.165Z,0
2023-02-01T01:47:36.049Z,0
2023-02-01T01:48:07.329Z,0
2023-02-01T01:48:38.694Z,0
2023-02-01T01:49:10.394Z,0
2023-02-01T01:49:40.401Z,0
2023-02-01T01:50:10.974Z,0
2023-02-01T01:50:42.152Z,0
2023-02-01T01:51:13.188Z,0
2023-02-01T01:51:44.084Z,0
2023-02-01T01:52:15.452Z,0
2023-02-01T01:52:47.036Z,0
2023-02-01T01:53:17.028Z,0
2023-02-01T01:53:48.439Z,0
2023-02-01T01:54:21.205Z,0
2023-02-01T01:54:50.537Z,0
2023-02-01T01:55:21.383Z,0
2023-02-01T01:55:52.110Z,0
2023-02-01T01:56:23.143Z,0
2023-02-01T01:56:54.374Z,0
2023-02-01T01:57:25.447Z,0
2023-02-01T01:57:56.083Z,0
2023-02-01T01:58:27.053Z,0
2023-02-01T01:58:58.192Z,-.11
2023-02-01T01:59:30.185Z,-.11
2023-02-01T02:00:00.093Z,-.11
2023-02-01T02:00:34.756Z,-.11
2023-02-01T02:01:02.078Z,-.11
2023-02-01T02:01:33.243Z,-.11
2023-02-01T02:02:04.302Z,0
2023-02-01T02:02:35.151Z,0
2023-02-01T02:03:06.033Z,0
2023-02-01T02:03:37.178Z,0
2023-02-01T02:04:08.680Z,0
2023-02-01T02:04:40.079Z,0
2023-02-01T02:05:10.057Z,0
2023-02-01T02:05:41.231Z,0
2023-02-01T02:06:12.193Z,0
2023-02-01T02:06:43.141Z,0
2023-02-01T02:07:14.675Z,-.11
2023-02-01T02:07:45.260Z,-.11
2023-02-01T02:08:16.544Z,-.11
2023-02-01T02:08:47.265Z,-.11
2023-02-01T02:09:18.275Z,-.11
2023-02-01T02:10:00.019Z,-.11
2023-02-01T02:10:20.229Z,-.11
2023-02-01T02:10:51.188Z,-.11
2023-02-01T02:11:22.149Z,-.11
2023-02-01T02:11:53.018Z,-.11
2023-02-01T02:12:19.252Z,-.11
2023-02-01T02:12:52.188Z,-.11
2023-02-01T02:13:28.482Z,-.11
2023-02-01T02:13:57.337Z,-.11
2023-02-01T02:14:28.474Z,-.11
2023-02-01T02:15:07.481Z,-.11
2023-02-01T02:15:31.400Z,-.11
2023-02-01T02:16:01.397Z,-.11
2023-02-01T02:16:32.753Z,-.11
2023-02-01T02:17:03.267Z,-.11
2023-02-01T02:17:34.297Z,-.11
2023-02-01T02:18:05.115Z,-.11
2023-02-01T02:18:36.360Z,-.11
2023-02-01T02:19:07.283Z,-.11
2023-02-01T02:19:38.573Z,-.11
2023-02-01T02:20:10.741Z,-.11
2023-02-01T02:20:40.396Z,-.11
2023-02-01T02:21:11.169Z,-.11
2023-02-01T02:21:42.381Z,-.11
2023-02-01T02:22:13.369Z,-.11
2023-02-01T02:22:44.710Z,-.11
2023-02-01T02:23:15.133Z,-.11
2023-02-01T02:23:46.382Z,-.11
2023-02-01T02:24:17.529Z,-.11
2023-02-01T02:24:48.319Z,0
2023-02-01T02:25:19.964Z,0
2023-02-01T02:25:50.327Z,0
2023-02-01T02:26:21.391Z,0
2023-02-01T02:26:52.308Z,0
2023-02-01T02:27:23.129Z,0
2023-02-01T02:27:54.222Z,0
2023-02-01T02:28:25.209Z,0
2023-02-01T02:28:56.251Z,0
2023-02-01T02:29:27.155Z,0
2023-02-01T02:29:58.465Z,0
2023-02-01T02:30:33.166Z,0
2023-02-01T02:31:00.331Z,0
2023-02-01T02:31:31.332Z,0
2023-02-01T02:32:02.759Z,0
2023-02-01T02:32:33.214Z,0
2023-02-01T02:33:04.082Z,0
2023-02-01T02:33:35.257Z,0
2023-02-01T02:34:06.441Z,0
2023-02-01T02:34:37.215Z,0
2023-02-01T02:35:08.299Z,0
2023-02-01T02:35:40.282Z,0
2023-02-01T02:36:10.271Z,0
2023-02-01T02:36:41.206Z,0
2023-02-01T02:37:12.323Z,0
2023-02-01T02:37:43.554Z,0
2023-02-01T02:38:14.141Z,0
2023-02-01T02:38:45.312Z,0
2023-02-01T02:39:16.103Z,0
2023-02-01T02:39:47.249Z,0
2023-02-01T02:40:18.040Z,0
2023-02-01T02:40:49.996Z,0
2023-02-01T02:41:20.435Z,0
2023-02-01T02:41:51.164Z,0
2023-02-01T02:42:22.221Z,0
2023-02-01T02:42:53.508Z,0
2023-02-01T02:43:24.410Z,0
2023-02-01T02:43:55.214Z,0
2023-02-01T02:44:26.230Z,0
2023-02-01T02:44:57.268Z,0
2023-02-01T02:45:31.929Z,0
2023-02-01T02:46:00.386Z,-.11
2023-02-01T02:46:30.327Z,-.11
2023-02-01T02:47:01.554Z,-.11
2023-02-01T02:47:32.380Z,-.11
2023-02-01T02:48:02.923Z,-.11
2023-02-01T02:48:34.257Z,-.11
2023-02-01T02:49:05.421Z,-.11
2023-02-01T02:49:36.322Z,-.11
2023-02-01T02:50:07.204Z,-.11
2023-02-01T02:50:38.049Z,-.11
2023-02-01T02:51:09.948Z,-.11
2023-02-01T02:51:40.271Z,-.11
2023-02-01T02:52:11.262Z,-.11
2023-02-01T02:52:42.242Z,-.22
2023-02-01T02:53:13.104Z,-.22
2023-02-01T02:53:44.011Z,-.22
2023-02-01T02:54:15.279Z,-.22
2023-02-01T02:54:46.282Z,-.22
2023-02-01T02:55:17.316Z,-.22
2023-02-01T02:55:48.579Z,-.22
2023-02-01T02:56:20.289Z,-.22
2023-02-01T02:56:50.301Z,-.22
2023-02-01T02:57:21.276Z,-.22
2023-02-01T02:57:52.354Z,-.22
2023-02-01T02:58:23.799Z,-.22
2023-02-01T02:58:54.240Z,-.22
2023-02-01T02:59:25.305Z,-.22
2023-02-01T02:59:56.088Z,-.22
2023-02-01T03:00:30.148Z,-.22
2023-02-01T03:00:58.478Z,-.22
2023-02-01T03:01:30.445Z,-.22
2023-02-01T03:02:00.691Z,-.22
2023-02-01T03:02:31.431Z,-.22
2023-02-01T03:03:02.314Z,-.22
2023-02-01T03:03:33.140Z,-.22
2023-02-01T03:04:04.493Z,-.27
2023-02-01T03:04:35.441Z,-.27
2023-02-01T03:05:06.476Z,-.27
2023-02-01T03:05:37.537Z,-.27
2023-02-01T03:06:08.389Z,-.27
2023-02-01T03:06:40.608Z,-.27
2023-02-01T03:07:10.641Z,-.27
2023-02-01T03:07:41.219Z,-.27
2023-02-01T03:08:12.183Z,-.27
2023-02-01T03:08:43.174Z,-.27
2023-02-01T03:09:14.056Z,-.27
2023-02-01T03:09:45.246Z,-.27
2023-02-01T03:10:16.188Z,-.27
2023-02-01T03:10:47.241Z,-.27
2023-02-01T03:11:18.288Z,-.27
2023-02-01T03:11:50.379Z,-.27
2023-02-01T03:12:20.405Z,-.27
2023-02-01T03:12:51.439Z,-.27
2023-02-01T03:13:22.636Z,-.27
2023-02-01T03:13:53.407Z,-.27
2023-02-01T03:14:24.414Z,-.27
2023-02-01T03:14:54.916Z,-.27
2023-02-01T03:15:29.540Z,-.27
2023-02-01T03:15:57.070Z,-.27
2023-02-01T03:16:28.374Z,-.27
2023-02-01T03:17:00.355Z,-.27
2023-02-01T03:17:30.329Z,-.38
2023-02-01T03:18:01.211Z,-.38
2023-02-01T03:18:32.405Z,-.38
2023-02-01T03:19:03.173Z,-.38
2023-02-01T03:19:34.430Z,-.38
2023-02-01T03:20:05.444Z,-.38
2023-02-01T03:20:36.133Z,-.38
2023-02-01T03:21:07.365Z,-.38
2023-02-01T03:21:38.676Z,-.38
2023-02-01T03:22:10.440Z,-.38
2023-02-01T03:22:40.447Z,-.38
2023-02-01T03:23:11.410Z,-.38
2023-02-01T03:23:42.391Z,-.38
2023-02-01T03:24:13.146Z,-.38
2023-02-01T03:24:44.050Z,-.38
2023-02-01T03:25:15.270Z,-.38
2023-02-01T03:25:46.253Z,-.38
2023-02-01T03:26:17.451Z,-.38
2023-02-01T03:26:48.095Z,-.38
2023-02-01T03:27:20.042Z,-.38
2023-02-01T03:27:50.651Z,-.38
2023-02-01T03:28:21.391Z,-.38
2023-02-01T03:28:52.509Z,-.38
2023-02-01T03:29:23.146Z,-.38
2023-02-01T03:29:54.755Z,-.38
2023-02-01T03:30:28.050Z,-.38
2023-02-01T03:30:56.434Z,-.50
2023-02-01T03:31:27.192Z,-.50
2023-02-01T03:31:58.054Z,-.50
2023-02-01T03:32:30.362Z,-.50
2023-02-01T03:33:00.002Z,-.50
2023-02-01T03:33:31.622Z,-.50
2023-02-01T03:34:02.657Z,-.50
2023-02-01T03:34:33.008Z,-.50
2023-02-01T03:35:04.389Z,-.50
2023-02-01T03:35:35.371Z,-.50
2023-02-01T03:36:06.373Z,-.50
2023-02-01T03:36:37.269Z,-.50
2023-02-01T03:37:08.145Z,-.50
2023-02-01T03:37:40.358Z,-.50
2023-02-01T03:38:10.454Z,-.50
2023-02-01T03:38:41.378Z,-.50
2023-02-01T03:39:12.511Z,-.50
2023-02-01T03:39:43.709Z,-.50
2023-02-01T03:40:14.494Z,-.50
2023-02-01T03:40:45.325Z,-.50
2023-02-01T03:41:16.274Z,-.50
2023-02-01T03:41:47.683Z,-.50
2023-02-01T03:42:18.482Z,-.50
2023-02-01T03:42:50.229Z,-.50
2023-02-01T03:43:20.428Z,-.38
2023-02-01T03:43:51.337Z,-.38
2023-02-01T03:44:22.302Z,-.38
2023-02-01T03:44:53.512Z,-.38
2023-02-01T03:45:27.656Z,-.38
2023-02-01T03:45:55.435Z,-.50
2023-02-01T03:46:26.348Z,-.50
2023-02-01T03:46:57.286Z,-.38
2023-02-01T03:47:28.515Z,-.50
2023-02-01T03:48:00.129Z,-.50
2023-02-01T03:48:30.584Z,-.50
2023-02-01T03:49:01.247Z,-.50
2023-02-01T03:49:32.334Z,-.50
2023-02-01T03:50:03.367Z,-.50
2023-02-01T03:50:34.813Z,-.50
2023-02-01T03:51:05.542Z,-.50
2023-02-01T03:51:36.578Z,-.50
2023-02-01T03:52:07.576Z,-.50
2023-02-01T03:52:38.457Z,-.50
2023-02-01T03:53:13.783Z,-.50
2023-02-01T03:53:40.593Z,-.50
2023-02-01T03:54:11.476Z,-.50
2023-02-01T03:54:42.304Z,-.38
2023-02-01T03:55:13.371Z,-.38
2023-02-01T03:55:44.343Z,-.38
2023-02-01T03:56:15.344Z,-.38
2023-02-01T03:56:46.338Z,-.38
2023-02-01T03:57:17.354Z,-.38
2023-02-01T03:57:48.161Z,-.38
2023-02-01T03:58:20.327Z,-.38
2023-02-01T03:58:50.565Z,-.38
2023-02-01T03:59:21.238Z,-.27
2023-02-01T03:59:51.998Z,-.27
2023-02-01T04:00:26.299Z,-.27
2023-02-01T04:00:54.447Z,-.27
2023-02-01T04:01:25.659Z,-.27
2023-02-01T04:01:56.415Z,-.27
2023-02-01T04:02:27.341Z,-.27
2023-02-01T04:02:58.065Z,-.27
2023-02-01T04:03:30.271Z,-.22
2023-02-01T04:04:00.534Z,-.22
2023-02-01T04:04:32.430Z,-.22
2023-02-01T04:05:02.701Z,-.22
2023-02-01T04:05:35.113Z,-.22
2023-02-01T04:06:04.581Z,-.22
2023-02-01T04:06:35.536Z,-.22
2023-02-01T04:07:06.761Z,-.22
2023-02-01T04:07:37.589Z,-.22
2023-02-01T04:08:08.232Z,-.11
2023-02-01T04:08:40.406Z,-.11
2023-02-01T04:09:10.214Z,-.11
2023-02-01T04:09:41.501Z,-.11
2023-02-01T04:10:12.298Z,-.11
2023-02-01T04:10:43.548Z,-.11
2023-02-01T04:11:14.830Z,-.11
2023-02-01T04:11:45.273Z,-.11
2023-02-01T04:12:16.386Z,-.11
2023-02-01T04:12:47.394Z,-.11
2023-02-01T04:13:18.619Z,-.11
2023-02-01T04:13:50.618Z,-.11
2023-02-01T04:14:20.555Z,0
2023-02-01T04:14:51.590Z,0
2023-02-01T04:15:25.345Z,0
2023-02-01T04:15:53.561Z,0
2023-02-01T04:16:24.545Z,0
2023-02-01T04:16:55.401Z,0
2023-02-01T04:17:26.076Z,0
2023-02-01T04:17:57.455Z,0
2023-02-01T04:18:28.523Z,0
2023-02-01T04:19:00.435Z,0
2023-02-01T04:19:30.470Z,0
2023-02-01T04:20:01.511Z,0
2023-02-01T04:20:32.207Z,0
2023-02-01T04:21:03.541Z,0
2023-02-01T04:21:34.812Z,0
2023-02-01T04:22:05.302Z,0
2023-02-01T04:22:36.641Z,0
2023-02-01T04:23:07.505Z,0
2023-02-01T04:23:38.739Z,0
2023-02-01T04:24:10.482Z,0
2023-02-01T04:24:40.569Z,0
2023-02-01T04:25:11.442Z,0
2023-02-01T04:25:42.483Z,0
2023-02-01T04:26:13.314Z,0
2023-02-01T04:26:44.223Z,0
2023-02-01T04:27:15.287Z,0
2023-02-01T04:27:46.319Z,0
2023-02-01T04:28:18.044Z,0
2023-02-01T04:28:48.759Z,0
2023-02-01T04:29:20.328Z,0
2023-02-01T04:29:50.910Z,0
2023-02-01T04:30:24.749Z,0
2023-02-01T04:30:52.446Z,0
2023-02-01T04:31:23.403Z,0
2023-02-01T04:31:54.466Z,0
2023-02-01T04:32:25.326Z,0
2023-02-01T04:32:56.712Z,0
2023-02-01T04:33:27.468Z,.11
2023-02-01T04:33:58.279Z,.11
2023-02-01T04:37:04.143Z,.11
2023-02-01T04:37:35.347Z,.11
2023-02-01T04:38:06.325Z,.11
2023-02-01T04:38:37.248Z,.11
2023-02-01T04:39:08.528Z,.11
2023-02-01T04:39:40.650Z,.11
2023-02-01T04:40:10.431Z,.11
2023-02-01T04:40:41.342Z,.11
2023-02-01T04:41:12.507Z,.11
2023-02-01T04:41:43.723Z,.11
2023-02-01T04:42:14.466Z,.11
2023-02-01T04:42:45.155Z,.11
2023-02-01T04:43:16.771Z,.11
2023-02-01T04:43:47.107Z,.11
2023-02-01T04:44:18.442Z,.11
2023-02-01T04:44:50.362Z,.11
2023-02-01T04:45:23.687Z,.22
2023-02-01T04:45:51.826Z,.22
2023-02-01T04:46:22.676Z,.22
2023-02-01T04:46:53.408Z,.22
2023-02-01T04:47:24.121Z,.22
2023-02-01T04:47:55.250Z,.22
2023-02-01T04:48:26.737Z,.22
2023-02-01T04:48:57.465Z,.22
2023-02-01T04:49:28.337Z,.22
2023-02-01T04:50:00.058Z,.22
2023-02-01T04:50:30.595Z,.22
2023-02-01T04:51:01.839Z,.27
2023-02-01T04:51:32.823Z,.27
2023-02-01T04:52:03.444Z,.27
2023-02-01T04:52:34.431Z,.27
2023-02-01T04:53:05.330Z,.27
2023-02-01T04:53:36.470Z,.27
2023-02-01T04:54:07.421Z,.27
2023-02-01T04:54:38.317Z,.27
2023-02-01T04:55:10.345Z,.27
2023-02-01T04:55:40.385Z,.27
2023-02-01T04:56:11.569Z,.27
2023-02-01T04:56:42.718Z,.27
2023-02-01T04:57:13.515Z,.27
2023-02-01T04:57:44.933Z,.27
2023-02-01T04:58:15.864Z,.27
2023-02-01T04:58:46.585Z,.27
2023-02-01T04:59:17.334Z,.27
2023-02-01T04:59:48.263Z,.27
2023-02-01T05:00:23.686Z,.38
2023-02-01T05:00:50.339Z,.38
2023-02-01T05:01:21.651Z,.38
2023-02-01T05:01:52.294Z,.38
2023-02-01T05:02:23.659Z,.38
2023-02-01T05:02:54.593Z,.38
2023-02-01T05:03:25.782Z,.38
2023-02-01T05:03:56.810Z,.38
2023-02-01T05:04:28.280Z,.38
2023-02-01T05:04:58.599Z,.50
2023-02-01T05:05:30.281Z,.50
2023-02-01T05:06:00.352Z,.50
2023-02-01T05:06:31.393Z,-1.22
2023-02-01T05:07:02.303Z,.50
2023-02-01T05:07:33.399Z,.50
2023-02-01T05:08:04.449Z,.61
2023-02-01T05:08:38.675Z,.61
2023-02-01T05:09:06.400Z,.61
2023-02-01T05:09:37.500Z,.61
2023-02-01T05:10:09.251Z,.61
2023-02-01T05:10:40.311Z,.61
2023-02-01T05:11:10.425Z,.61
2023-02-01T05:11:41.491Z,.61
2023-02-01T05:12:12.492Z,.61
2023-02-01T05:12:43.738Z,.61
2023-02-01T05:13:14.621Z,.61
2023-02-01T05:13:45.542Z,.61
2023-02-01T05:14:16.529Z,.61
2023-02-01T05:14:47.443Z,.61
2023-02-01T05:15:22.110Z,.61
2023-02-01T05:15:50.926Z,.61
2023-02-01T05:16:20.334Z,.61
2023-02-01T05:16:51.989Z,.61
2023-02-01T05:17:22.765Z,.61
2023-02-01T05:17:53.633Z,.61
2023-02-01T05:18:24.359Z,.61
2023-02-01T05:18:55.550Z,.61
2023-02-01T05:19:26.257Z,.61
2023-02-01T05:19:57.473Z,.61
2023-02-01T05:20:28.776Z,.61
2023-02-01T05:21:00.291Z,.61
2023-02-01T05:21:30.649Z,.61
2023-02-01T05:22:01.705Z,.61
2023-02-01T05:22:32.254Z,.61
2023-02-01T05:23:03.236Z,.61
2023-02-01T05:23:34.374Z,.61
2023-02-01T05:24:05.416Z,.72
2023-02-01T05:24:36.155Z,.72
2023-02-01T05:25:09.626Z,.72
2023-02-01T05:25:38.463Z,.72
2023-02-01T05:26:10.557Z,.72
2023-02-01T05:26:40.405Z,.72
2023-02-01T05:27:11.262Z,.72
2023-02-01T05:27:42.323Z,.72
2023-02-01T05:28:13.513Z,.72
2023-02-01T05:28:44.335Z,.72
2023-02-01T05:29:15.169Z,.72
2023-02-01T05:29:46.474Z,.72
2023-02-01T05:30:20.306Z,.72
2023-02-01T05:30:48.585Z,.72
2023-02-01T05:31:20.470Z,.72
2023-02-01T05:31:50.842Z,.72
2023-02-01T05:32:23.012Z,.72
2023-02-01T05:32:52.270Z,.72
2023-02-01T05:33:23.217Z,.72
2023-02-01T05:33:54.225Z,.72
2023-02-01T05:34:25.217Z,.72
2023-02-01T05:34:56.221Z,.72
2023-02-01T05:35:27.192Z,.72
2023-02-01T05:35:58.548Z,.72
2023-02-01T05:36:30.930Z,.72
2023-02-01T05:37:00.342Z,.72
2023-02-01T05:37:31.248Z,.72
2023-02-01T05:38:02.618Z,.72
2023-02-01T05:38:34.461Z,.72
2023-02-01T05:39:04.786Z,.72
2023-02-01T05:39:35.582Z,.72
2023-02-01T05:40:06.378Z,.72
2023-02-01T05:40:37.410Z,.72
2023-02-01T05:41:08.203Z,.72
2023-02-01T05:41:40.770Z,.72
2023-02-01T05:42:10.548Z,.72
2023-02-01T05:42:41.246Z,.72
2023-02-01T05:43:12.194Z,.72
2023-02-01T05:43:44.606Z,.77
2023-02-01T05:44:14.790Z,.77
2023-02-01T05:44:45.453Z,.77
2023-02-01T05:45:19.540Z,.77
2023-02-01T05:45:47.308Z,.77
2023-02-01T05:46:18.438Z,.77
2023-02-01T05:46:50.403Z,.77
2023-02-01T05:47:20.248Z,.77
2023-02-01T05:47:51.539Z,.77
2023-02-01T05:48:22.633Z,.72
2023-02-01T05:48:53.171Z,.72
2023-02-01T05:49:23.944Z,.72
2023-02-01T05:49:55.312Z,.72
2023-02-01T05:50:26.258Z,.72
2023-02-01T05:50:57.491Z,.77
2023-02-01T05:51:28.601Z,.77
2023-02-01T05:52:00.708Z,.77
2023-02-01T05:52:30.569Z,.77
2023-02-01T05:53:01.516Z,.72
2023-02-01T05:53:32.228Z,.72
2023-02-01T05:54:03.303Z,.72
2023-02-01T05:54:34.716Z,.72
2023-02-01T05:55:05.575Z,.72
2023-02-01T05:55:36.497Z,.72
2023-02-01T05:56:07.328Z,.72
2023-02-01T05:56:38.269Z,.72
2023-02-01T05:57:10.263Z,.72
2023-02-01T05:57:40.359Z,.72
2023-02-01T05:58:11.386Z,.72
2023-02-01T05:58:42.295Z,.72
2023-02-01T05:59:13.719Z,.72
2023-02-01T05:59:44.621Z,.72
2023-02-01T06:00:18.080Z,.72
2023-02-01T06:00:46.592Z,.72
2023-02-01T06:01:17.337Z,.72
2023-02-01T06:01:48.617Z,.72
2023-02-01T06:02:20.511Z,.72
2023-02-01T06:02:50.386Z,.72
2023-02-01T06:03:21.606Z,.72
2023-02-01T06:03:52.504Z,.72
2023-02-01T06:04:23.243Z,.72
2023-02-01T06:04:54.901Z,.72
2023-02-01T06:05:25.686Z,.72
2023-02-01T06:05:56.329Z,.72
2023-02-01T06:06:27.281Z,.72
2023-02-01T06:06:59.608Z,.72
2023-02-01T06:07:30.451Z,.72
2023-02-01T06:08:00.749Z,.72
2023-02-01T06:08:31.310Z,.72
2023-02-01T06:09:02.400Z,.72
2023-02-01T06:09:33.479Z,.72
2023-02-01T06:10:04.268Z,.72
2023-02-01T06:10:35.515Z,.72
2023-02-01T06:11:06.594Z,.72
2023-02-01T06:11:37.479Z,.72
2023-02-01T06:12:08.873Z,.61
2023-02-01T06:12:40.812Z,.61
2023-02-01T06:13:10.371Z,.72
2023-02-01T06:13:41.327Z,.72
2023-02-01T06:14:12.553Z,.61
2023-02-01T06:14:43.279Z,.61
2023-02-01T06:15:17.119Z,.61
2023-02-01T06:15:45.271Z,.61
2023-02-01T06:16:16.605Z,.61
2023-02-01T06:16:47.271Z,.61
2023-02-01T06:17:18.642Z,.61
2023-02-01T06:17:50.344Z,.72
2023-02-01T06:18:20.352Z,.72
2023-02-01T06:18:51.313Z,.72
2023-02-01T06:19:22.439Z,.72
2023-02-01T06:19:53.203Z,.61
2023-02-01T06:20:24.544Z,.61
2023-02-01T06:20:55.396Z,.61
2023-02-01T06:21:26.364Z,.61
2023-02-01T06:21:57.254Z,.61
2023-02-01T06:22:28.394Z,.61
2023-02-01T06:23:00.147Z,.61
2023-02-01T06:23:30.286Z,.61
2023-02-01T06:24:01.356Z,.61
2023-02-01T06:24:32.340Z,.61
2023-02-01T06:25:03.488Z,.61
2023-02-01T06:25:34.862Z,.61
2023-02-01T06:26:05.288Z,.61
2023-02-01T06:26:36.378Z,.61
2023-02-01T06:27:07.263Z,.61
2023-02-01T06:27:38.456Z,.61
2023-02-01T06:28:10.779Z,.61
2023-02-01T06:28:40.477Z,.61
2023-02-01T06:29:11.517Z,.61
2023-02-01T06:29:42.483Z,.61
2023-02-01T06:30:16.207Z,.61
2023-02-01T06:30:44.364Z,.61
2023-02-01T06:31:15.611Z,.61
2023-02-01T06:31:46.463Z,.61
2023-02-01T06:32:17.379Z,.61
2023-02-01T06:32:48.153Z,.61
2023-02-01T06:33:20.515Z,.61
2023-02-01T06:33:50.351Z,.61
2023-02-01T06:34:22.265Z,.61
2023-02-01T06:34:52.399Z,.61
2023-02-01T06:35:23.309Z,.61
2023-02-01T06:35:54.210Z,.61
2023-02-01T06:36:25.705Z,.61
2023-02-01T06:36:56.974Z,.61
2023-02-01T06:37:27.227Z,.61
2023-02-01T06:37:58.240Z,.61
2023-02-01T06:38:30.636Z,.61
2023-02-01T06:39:00.459Z,.61
2023-02-01T06:39:31.509Z,.61
2023-02-01T06:40:02.687Z,.61
2023-02-01T06:40:33.476Z,.61
2023-02-01T06:41:04.291Z,.61
2023-02-01T06:41:35.161Z,.61
2023-02-01T06:42:06.193Z,.61
2023-02-01T06:42:37.391Z,.61
2023-02-01T06:43:08.564Z,.61
2023-02-01T06:43:40.238Z,.61
2023-02-01T06:44:10.424Z,.61
2023-02-01T06:44:41.578Z,.61
2023-02-01T06:45:15.578Z,.61
2023-02-01T06:45:43.468Z,.61
2023-02-01T06:46:14.556Z,.61
2023-02-01T06:46:45.692Z,.61
2023-02-01T06:47:16.656Z,.61
2023-02-01T06:47:47.951Z,.61
2023-02-01T06:48:18.866Z,.61
2023-02-01T06:48:50.428Z,.61
2023-02-01T06:49:20.331Z,.61
2023-02-01T06:49:51.741Z,.61
2023-02-01T06:50:22.871Z,.61
2023-02-01T06:50:53.353Z,.50
2023-02-01T06:51:24.519Z,.50
2023-02-01T06:51:55.628Z,.50
2023-02-01T06:52:26.442Z,.50
2023-02-01T06:52:57.114Z,.50
2023-02-01T06:53:28.399Z,.50
2023-02-01T06:54:00.270Z,.50
2023-02-01T06:54:30.361Z,.50
2023-02-01T06:55:01.382Z,.50
2023-02-01T06:55:32.249Z,.50
2023-02-01T06:56:03.482Z,.50
2023-02-01T06:56:34.221Z,.50
2023-02-01T06:57:05.363Z,.50
2023-02-01T06:57:36.501Z,.50
2023-02-01T06:58:07.355Z,.50
2023-02-01T06:58:38.316Z,.50
2023-02-01T06:59:10.308Z,.50
2023-02-01T06:59:40.333Z,.50
2023-02-01T07:00:14.498Z,.50
2023-02-01T07:00:42.515Z,.50
2023-02-01T07:01:13.544Z,.50
2023-02-01T07:01:44.608Z,.50
2023-02-01T07:02:15.501Z,.50
2023-02-01T07:02:46.449Z,.50
2023-02-01T07:03:17.664Z,.50
2023-02-01T07:03:48.297Z,.50
2023-02-01T07:04:20.968Z,.50
2023-02-01T07:04:50.755Z,.50
2023-02-01T07:05:22.082Z,.50
2023-02-01T07:05:52.361Z,.38
2023-02-01T07:06:23.344Z,.38
2023-02-01T07:06:54.426Z,.38
2023-02-01T07:07:25.793Z,.38
2023-02-01T07:07:56.669Z,.38